createdAt,value
2023-03-06T00:03:52.406Z,0
2023-03-06T00:08:51.703Z,0
2023-03-06T00:13:52.813Z,0
2023-03-06T00:23:49.886Z,0
2023-03-06T00:28:49.769Z,0
2023-03-06T00:33:50.260Z,0
2023-03-06T00:38:46.479Z,0
2023-03-06T00:43:46.351Z,0
2023-03-06T00:48:46.166Z,0
2023-03-06T00:53:45.724Z,0
2023-03-06T00:58:31.999Z,0
2023-03-06T01:03:31.192Z,0
2023-03-06T01:08:30.586Z,0
2023-03-06T01:13:30.214Z,0
2023-03-06T01:18:29.441Z,0
2023-03-06T01:23:29.589Z,0
2023-03-06T01:28:29.403Z,0
2023-03-06T01:33:28.972Z,0
2023-03-06T01:38:29.937Z,0
2023-03-06T01:43:26.061Z,0
2023-03-06T01:48:26.484Z,0
2023-03-06T01:53:25.460Z,0
2023-03-06T01:58:11.645Z,0
2023-03-06T01:59:33.783Z,0
2023-03-06T02:04:33.749Z,0
2023-03-06T02:09:34.910Z,0
2023-03-06T02:14:35.058Z,0
2023-03-06T02:19:32.665Z,0
2023-03-06T02:24:32.326Z,0
2023-03-06T02:29:30.797Z,0
2023-03-06T02:34:30.326Z,0
2023-03-06T02:39:30.122Z,0
2023-03-06T02:44:30.110Z,0
2023-03-06T02:49:29.714Z,0
2023-03-06T02:54:31.832Z,0
2023-03-06T02:58:59.114Z,0
2023-03-06T03:03:59.316Z,0
2023-03-06T03:08:58.181Z,0
2023-03-06T03:13:58.389Z,0
2023-03-06T03:18:55.571Z,0
2023-03-06T03:23:56.549Z,0
2023-03-06T03:28:55.207Z,0
2023-03-06T03:33:56.922Z,0
2023-03-06T03:38:52.071Z,0
2023-03-06T03:43:52.293Z,0
2023-03-06T03:48:51.935Z,0
2023-03-06T03:53:51.387Z,0
2023-03-06T03:58:49.072Z,0
2023-03-06T04:03:49.058Z,0
2023-03-06T04:08:48.041Z,0
2023-03-06T04:13:47.500Z,0
2023-03-06T04:18:47.136Z,0
2023-03-06T04:23:47.141Z,0
2023-03-06T04:28:47.153Z,0
2023-03-06T04:33:46.141Z,0
2023-03-06T04:38:47.638Z,0
2023-03-06T04:43:44.080Z,0
2023-03-06T04:48:44.194Z,0
2023-03-06T04:53:54.013Z,0
2023-03-06T04:58:54.465Z,0
2023-03-06T05:03:51.481Z,0
2023-03-06T05:08:51.705Z,0
2023-03-06T05:13:50.670Z,0
2023-03-06T05:18:53.547Z,0
2023-03-06T05:23:51.459Z,0
2023-03-06T05:28:52.197Z,0
2023-03-06T05:33:49.017Z,0
2023-03-06T05:38:48.838Z,0
2023-03-06T05:43:50.157Z,0
2023-03-06T05:48:36.909Z,0
2023-03-06T05:53:36.733Z,0
2023-03-06T05:58:36.221Z,0
2023-03-06T05:59:58.222Z,0
2023-03-06T06:04:56.338Z,0
2023-03-06T06:09:55.511Z,0
2023-03-06T06:15:48.289Z,0
2023-03-06T06:19:54.796Z,0
2023-03-06T06:24:53.344Z,0
2023-03-06T06:29:53.929Z,0
2023-03-06T06:34:53.839Z,0
2023-03-06T06:39:51.342Z,0
2023-03-06T06:44:51.447Z,0
2023-03-06T06:49:50.954Z,0.01
2023-03-06T06:54:52.501Z,0.01
2023-03-06T06:59:19.993Z,0.01
2023-03-06T07:04:14.992Z,0.01
2023-03-06T07:09:13.749Z,0.01
2023-03-06T07:14:14.190Z,0.01
2023-03-06T07:19:11.123Z,0.02
2023-03-06T07:24:11.442Z,0.02
2023-03-06T07:29:10.664Z,0.03
2023-03-06T07:34:10.136Z,0.03
2023-03-06T07:39:09.349Z,0.03
2023-03-06T07:44:09.218Z,0.03
2023-03-06T07:49:09.358Z,0.03
2023-03-06T07:54:09.200Z,0.04
2023-03-06T07:58:59.133Z,0.04
2023-03-06T08:03:53.497Z,0.05
2023-03-06T08:08:52.657Z,0.04
2023-03-06T08:13:53.106Z,0.04
2023-03-06T08:18:52.911Z,0.05
2023-03-06T08:23:50.345Z,0.05
2023-03-06T08:28:49.991Z,0.05
2023-03-06T08:33:48.468Z,0.06
2023-03-06T08:38:49.670Z,0.06
2023-03-06T08:43:46.102Z,0.07
2023-03-06T08:48:46.322Z,0.07
2023-03-06T08:53:47.062Z,0.09
2023-03-06T08:58:45.327Z,0.09
2023-03-06T09:03:53.572Z,0.09
2023-03-06T09:08:53.029Z,0.09
2023-03-06T09:13:53.788Z,0.1
2023-03-06T09:18:52.315Z,0.1
2023-03-06T09:23:52.837Z,0.1
2023-03-06T09:28:52.750Z,0.1
2023-03-06T09:33:54.257Z,0.1
2023-03-06T09:38:51.461Z,0.1
2023-03-06T09:43:51.191Z,0.11
2023-03-06T09:48:52.635Z,0.14
2023-03-06T09:53:49.415Z,0.14
2023-03-06T09:58:48.924Z,0.14
2023-03-06T10:03:49.078Z,0.14
2023-03-06T10:08:47.615Z,0.15
2023-03-06T10:13:47.741Z,0.15
2023-03-06T10:18:49.742Z,0.16
2023-03-06T10:23:36.252Z,0.18
2023-03-06T10:28:38.044Z,0.23
2023-03-06T10:33:36.264Z,0.27
2023-03-06T10:38:35.946Z,0.29
2023-03-06T10:43:38.078Z,0.27
2023-03-06T10:48:33.664Z,0.24
2023-03-06T10:53:33.622Z,0.25
2023-03-06T10:58:33.459Z,0.25
2023-03-06T10:59:54.541Z,0.25
2023-03-06T11:04:54.688Z,0.25
2023-03-06T11:09:54.213Z,0.27
2023-03-06T11:14:53.863Z,0.27
2023-03-06T11:19:54.828Z,0.25
2023-03-06T11:24:51.789Z,0.29
2023-03-06T11:29:51.887Z,0.32
2023-03-06T11:34:53.541Z,0.32
2023-03-06T11:39:50.709Z,0.3
2023-03-06T11:44:49.384Z,0.28
2023-03-06T11:49:49.261Z,0.29
2023-03-06T11:54:49.100Z,0.25
2023-03-06T11:59:15.250Z,0.26
2023-03-06T12:04:12.647Z,0.26
2023-03-06T12:09:12.501Z,0.28
2023-03-06T12:14:11.836Z,0.21
2023-03-06T12:19:11.557Z,0.16
2023-03-06T12:24:08.915Z,0.17
2023-03-06T12:29:08.429Z,0.27
2023-03-06T12:39:07.596Z,0.18
2023-03-06T12:44:07.277Z,0.09
2023-03-06T12:49:06.854Z,0.07
2023-03-06T12:54:06.648Z,0.15
2023-03-06T12:58:53.481Z,0.13
2023-03-06T13:03:54.541Z,0.13
2023-03-06T13:08:51.282Z,0.05
2023-03-06T13:13:51.166Z,0.11
2023-03-06T13:18:50.312Z,0.1
2023-03-06T13:23:49.392Z,0.07
2023-03-06T13:28:49.019Z,0.08
2023-03-06T13:33:48.966Z,0.07
2023-03-06T13:38:48.482Z,0.06
2023-03-06T13:43:50.184Z,0.06
2023-03-06T13:48:48.482Z,0.06
2023-03-06T13:53:46.528Z,0.07
2023-03-06T13:58:45.757Z,0.09
2023-03-06T14:03:46.088Z,0.1
2023-03-06T14:08:54.099Z,0.08
2023-03-06T14:13:53.552Z,0.1
2023-03-06T14:18:54.210Z,0.14
2023-03-06T14:23:52.964Z,0.12
2023-03-06T14:28:54.085Z,0.11
2023-03-06T14:33:54.054Z,0.1
2023-03-06T14:38:53.511Z,0.09
2023-03-06T14:43:50.459Z,0.09
2023-03-06T14:48:50.400Z,0.08
2023-03-06T14:53:52.724Z,0.09
2023-03-06T14:58:48.987Z,0.09
2023-03-06T15:00:19.629Z,0.09
2023-03-06T15:05:10.597Z,0.07
2023-03-06T15:10:08.446Z,0.08
2023-03-06T15:15:07.770Z,0.08
2023-03-06T15:20:07.216Z,0.06
2023-03-06T15:25:06.922Z,0.06
2023-03-06T15:30:06.718Z,0.05
2023-03-06T15:35:06.196Z,0.05
2023-03-06T15:40:05.898Z,0.05
2023-03-06T15:45:05.589Z,0.05
2023-03-06T15:50:06.719Z,0.05
2023-03-06T15:55:02.511Z,0.04
2023-03-06T15:59:23.111Z,0.03
2023-03-06T16:04:22.600Z,0.02
2023-03-06T16:09:22.342Z,0.03
2023-03-06T16:14:19.670Z,0.02
2023-03-06T16:19:30.002Z,0.02
2023-03-06T16:24:19.164Z,0.01
2023-03-06T16:29:18.652Z,0.01
2023-03-06T16:34:18.338Z,0
2023-03-06T16:39:18.870Z,0
2023-03-06T16:44:18.180Z,0
2023-03-06T16:49:18.160Z,0
2023-03-06T16:54:15.503Z,0
2023-03-06T16:59:11.523Z,0
2023-03-06T17:04:10.697Z,0
2023-03-06T17:09:10.841Z,0
2023-03-06T17:14:09.187Z,0
2023-03-06T17:19:08.853Z,0
2023-03-06T17:24:09.142Z,0
2023-03-06T17:29:10.063Z,0
2023-03-06T17:34:09.515Z,0
2023-03-06T17:39:06.427Z,0
2023-03-06T17:44:06.118Z,0
2023-03-06T17:49:05.406Z,0
2023-03-06T17:54:05.858Z,0
2023-03-06T17:58:49.056Z,0
2023-03-06T18:03:49.153Z,0
2023-03-06T18:08:48.064Z,0
2023-03-06T18:13:47.942Z,0
2023-03-06T18:18:45.757Z,0
2023-03-06T18:23:45.807Z,0
2023-03-06T18:28:45.249Z,0
2023-03-06T18:33:45.886Z,0
2023-03-06T18:38:53.994Z,0
2023-03-06T18:43:54.466Z,0
2023-03-06T18:48:54.439Z,0
2023-03-06T18:53:53.250Z,0
2023-03-06T18:58:54.097Z,0
2023-03-06T19:03:54.507Z,0
2023-03-06T19:08:52.620Z,0
2023-03-06T19:13:51.206Z,0
2023-03-06T19:18:51.612Z,0
2023-03-06T19:23:49.836Z,0
2023-03-06T19:28:50.350Z,0
2023-03-06T19:33:50.578Z,0
2023-03-06T19:38:51.358Z,0
2023-03-06T19:43:48.296Z,0
2023-03-06T19:48:48.631Z,0
2023-03-06T19:53:47.779Z,0
2023-03-06T19:58:48.219Z,0
2023-03-06T20:00:09.854Z,0
2023-03-06T20:05:12.252Z,0
2023-03-06T20:10:07.020Z,0
2023-03-06T20:15:06.813Z,0
2023-03-06T20:20:05.946Z,0
2023-03-06T20:25:05.891Z,0
2023-03-06T20:30:08.970Z,0
2023-03-06T20:35:04.715Z,0
2023-03-06T20:40:05.482Z,0
2023-03-06T20:45:05.314Z,0
2023-03-06T20:50:05.463Z,0
2023-03-06T20:55:02.157Z,0
2023-03-06T20:59:22.776Z,0
2023-03-06T21:04:21.863Z,0
2023-03-06T21:09:21.792Z,0
2023-03-06T21:14:19.361Z,0
2023-03-06T21:19:19.722Z,0
2023-03-06T21:24:21.258Z,0
2023-03-06T21:29:19.437Z,0
2023-03-06T21:34:15.327Z,0
2023-03-06T21:39:16.487Z,0
2023-03-06T21:44:15.498Z,0
2023-03-06T21:49:15.072Z,0
2023-03-06T21:54:12.346Z,0
2023-03-06T21:59:07.599Z,0
2023-03-06T22:04:07.487Z,0
2023-03-06T22:09:07.024Z,0
2023-03-06T22:14:06.528Z,0
2023-03-06T22:19:05.983Z,0
2023-03-06T22:24:06.296Z,0
2023-03-06T22:29:05.719Z,0
2023-03-06T22:34:06.921Z,0
2023-03-06T22:39:04.197Z,0
2023-03-06T22:44:03.637Z,0
2023-03-06T22:49:02.857Z,0
2023-03-06T22:54:03.582Z,0
2023-03-06T22:58:46.457Z,0
2023-03-06T23:03:46.300Z,0
2023-03-06T23:08:46.513Z,0
2023-03-06T23:13:47.489Z,0
2023-03-06T23:18:44.159Z,0
2023-03-06T23:23:54.377Z,0
2023-03-06T23:28:54.630Z,0
2023-03-06T23:33:53.537Z,0
2023-03-06T23:38:53.929Z,0
2023-03-06T23:43:57.237Z,0
2023-03-06T23:48:54.560Z,0
2023-03-06T23:53:51.245Z,0
2023-03-06T23:58:51.441Z,0
